Time;durP1;ratioP1;P1;durP2;ratioP2;P2;SDS_P1;SDS_P2;PMS_P1;PMS_P2;Temp;Humidity;BMP_temperature;BMP_pressure;BME280_temperature;BME280_humidity;BME280_pressure;Samples;Min_cycle;Max_cycle;Signal;HPM_P1;HPM_P2
2023/07/11 00:02:21;;;;;;;0.93;0.93;;;;;;;;;;5034883;28;20033;-74
2023/07/11 00:04:46;;;;;;;1.00;1.00;;;;;;;;;;5035359;28;20037;-74
2023/07/11 00:07:11;;;;;;;1.92;1.00;;;;;;;;;;5018832;28;20079;-74
2023/07/11 00:09:37;;;;;;;1.88;0.98;;;;;;;;;;5052918;28;20494;-74
2023/07/11 00:12:02;;;;;;;1.48;1.08;;;;;;;;;;5053372;28;20036;-74
2023/07/11 00:14:28;;;;;;;2.10;1.13;;;;;;;;;;5051724;28;20056;-74
2023/07/11 00:16:54;;;;;;;1.17;1.00;;;;;;;;;;5053019;28;20480;-74
2023/07/11 00:19:20;;;;;;;3.35;1.10;;;;;;;;;;5052922;28;20438;-74
2023/07/11 00:21:46;;;;;;;1.92;1.23;;;;;;;;;;5035652;28;20032;-74
2023/07/11 00:24:12;;;;;;;1.85;1.10;;;;;;;;;;5051547;28;20373;-74
2023/07/11 00:26:38;;;;;;;2.67;1.13;;;;;;;;;;5035001;28;20033;-73
2023/07/11 00:29:20;;;;;;;1.88;1.45;;;;;;;;;;5051802;28;20025;-74
2023/07/11 00:31:46;;;;;;;1.67;1.20;;;;;;;;;;5018570;28;20025;-74
2023/07/11 00:34:11;;;;;;;1.15;0.90;;;;;;;;;;5035081;28;20040;-74
2023/07/11 00:36:37;;;;;;;1.58;1.13;;;;;;;;;;5035648;28;20029;-74
2023/07/11 00:39:04;;;;;;;2.28;1.50;;;;;;;;;;5052859;28;20397;-74
2023/07/11 00:41:29;;;;;;;1.30;1.10;;;;;;;;;;5051797;28;20025;-74
2023/07/11 00:43:54;;;;;;;1.48;0.98;;;;;;;;;;5052634;28;20036;-74
2023/07/11 00:46:20;;;;;;;2.70;1.20;;;;;;;;;;5052877;28;20036;-74
2023/07/11 00:48:48;;;;;;;2.40;1.50;;;;;;;;;;5034922;28;20076;-74
2023/07/11 00:51:17;;;;;;;1.17;1.05;;;;;;;;;;5051451;28;20388;-74
2023/07/11 00:53:44;;;;;;;1.50;1.08;;;;;;;;;;5052676;28;20032;-74
2023/07/11 00:56:12;;;;;;;1.30;1.00;;;;;;;;;;5051960;28;20505;-74
2023/07/11 00:58:39;;;;;;;1.08;0.98;;;;;;;;;;5018491;28;20032;-74
2023/07/11 01:01:05;;;;;;;2.08;1.10;;;;;;;;;;5052123;28;20463;-74
2023/07/11 01:03:30;;;;;;;1.65;1.10;;;;;;;;;;5018319;28;20036;-74
2023/07/11 01:05:57;;;;;;;1.10;0.90;;;;;;;;;;5052451;28;20112;-74
2023/07/11 01:08:22;;;;;;;1.83;1.17;;;;;;;;;;5051372;28;20456;-73
2023/07/11 01:10:48;;;;;;;1.75;1.30;;;;;;;;;;5018311;28;20033;-74
2023/07/11 01:13:13;;;;;;;1.10;1.00;;;;;;;;;;5034817;28;20040;-75
2023/07/11 01:15:39;;;;;;;1.95;1.05;;;;;;;;;;5054920;28;20036;-73
2023/07/11 01:18:04;;;;;;;1.48;1.20;;;;;;;;;;5038124;28;20115;-74
2023/07/11 01:20:30;;;;;;;1.02;1.00;;;;;;;;;;5056052;28;20076;-74
2023/07/11 01:22:55;;;;;;;1.48;0.93;;;;;;;;;;5021525;28;20036;-74
2023/07/11 01:25:22;;;;;;;1.38;1.10;;;;;;;;;;5034483;28;20054;-74
2023/07/11 01:27:49;;;;;;;1.58;1.23;;;;;;;;;;5051191;28;20017;-74
2023/07/11 01:30:17;;;;;;;1.50;1.00;;;;;;;;;;5051248;28;20076;-74
2023/07/11 01:32:42;;;;;;;2.67;1.02;;;;;;;;;;5034640;28;20076;-74
2023/07/11 01:35:08;;;;;;;1.58;1.27;;;;;;;;;;5034639;28;20025;-73
2023/07/11 01:37:34;;;;;;;1.35;1.10;;;;;;;;;;5051881;28;20049;-73
2023/07/11 01:39:59;;;;;;;2.83;1.65;;;;;;;;;;5035918;28;20033;-74
2023/07/11 01:42:25;;;;;;;1.30;1.10;;;;;;;;;;5035752;28;20029;-73
2023/07/11 01:44:50;;;;;;;1.05;0.95;;;;;;;;;;5034524;28;20391;-73
2023/07/11 01:47:16;;;;;;;1.88;1.10;;;;;;;;;;5035843;28;20029;-73
2023/07/11 01:49:41;;;;;;;1.08;0.88;;;;;;;;;;5034679;28;20041;-73
2023/07/11 01:52:12;;;;;;;1.60;1.25;;;;;;;;;;5050822;28;20124;-74
2023/07/11 01:54:38;;;;;;;1.52;1.00;;;;;;;;;;5035562;28;20045;-74
2023/07/11 01:57:03;;;;;;;1.73;1.17;;;;;;;;;;5050837;28;20037;-74
2023/07/11 01:59:29;;;;;;;1.35;1.10;;;;;;;;;;5050777;28;20029;-74
2023/07/11 02:01:54;;;;;;;2.45;1.40;;;;;;;;;;5035584;28;20461;-74
2023/07/11 02:04:21;;;;;;;1.50;0.93;;;;;;;;;;5033990;28;20176;-74
2023/07/11 02:06:50;;;;;;;1.42;0.93;;;;;;;;;;5050428;28;20017;-74
2023/07/11 02:09:17;;;;;;;1.17;1.00;;;;;;;;;;5017414;28;20128;-74
2023/07/11 02:11:42;;;;;;;1.33;1.10;;;;;;;;;;5033869;28;20476;-74
2023/07/11 02:14:08;;;;;;;1.30;1.20;;;;;;;;;;5035355;28;20079;-73
2023/07/11 02:16:33;;;;;;;1.10;1.00;;;;;;;;;;5034055;28;20116;-74
2023/07/11 02:18:59;;;;;;;1.30;1.00;;;;;;;;;;5035265;28;20033;-74
2023/07/11 02:21:24;;;;;;;1.00;0.88;;;;;;;;;;5033769;28;20021;-74
2023/07/11 02:23:50;;;;;;;1.33;1.00;;;;;;;;;;5033513;28;20034;-73
2023/07/11 02:26:16;;;;;;;2.45;1.20;;;;;;;;;;5033024;28;20451;-74
2023/07/11 02:28:41;;;;;;;1.77;1.27;;;;;;;;;;5033641;28;20057;-74
2023/07/11 02:31:07;;;;;;;2.05;1.27;;;;;;;;;;5033532;28;20079;-74
2023/07/11 02:33:32;;;;;;;1.25;1.15;;;;;;;;;;5050159;28;20025;-74
2023/07/11 02:35:57;;;;;;;1.42;0.90;;;;;;;;;;5033867;28;20033;-74
2023/07/11 02:38:23;;;;;;;1.95;1.25;;;;;;;;;;5050306;28;20025;-74
2023/07/11 02:40:48;;;;;;;1.35;1.15;;;;;;;;;;5033445;28;20026;-75
2023/07/11 02:43:15;;;;;;;2.88;1.25;;;;;;;;;;5033495;28;20211;-74
2023/07/11 02:45:40;;;;;;;2.30;1.20;;;;;;;;;;5050332;28;20021;-73
2023/07/11 02:48:06;;;;;;;1.00;0.93;;;;;;;;;;5050259;28;20040;-74
2023/07/11 02:50:31;;;;;;;1.95;1.27;;;;;;;;;;5034486;28;20033;-74
2023/07/11 02:52:56;;;;;;;1.63;1.02;;;;;;;;;;5049847;28;20480;-74
2023/07/11 02:55:22;;;;;;;1.95;1.35;;;;;;;;;;5034915;28;20055;-74
2023/07/11 02:57:47;;;;;;;2.58;1.10;;;;;;;;;;5033120;28;20040;-75
2023/07/11 03:00:13;;;;;;;2.03;1.20;;;;;;;;;;5034316;28;20029;-75
2023/07/11 03:02:38;;;;;;;2.92;1.30;;;;;;;;;;5032940;28;20028;-74
2023/07/11 03:05:05;;;;;;;3.13;1.20;;;;;;;;;;5033004;28;20060;-75
2023/07/11 03:07:30;;;;;;;2.85;1.25;;;;;;;;;;5032983;28;20034;-74
2023/07/11 03:09:56;;;;;;;1.95;1.20;;;;;;;;;;5033506;28;20084;-74
2023/07/11 03:12:21;;;;;;;1.35;1.00;;;;;;;;;;5033854;28;20088;-74
2023/07/11 03:14:50;;;;;;;2.40;1.63;;;;;;;;;;5034236;28;20040;-75
2023/07/11 03:17:16;;;;;;;2.80;1.25;;;;;;;;;;5049580;28;20033;-75
2023/07/11 03:19:41;;;;;;;2.10;1.30;;;;;;;;;;5016513;28;20125;-75
2023/07/11 03:22:07;;;;;;;1.25;1.10;;;;;;;;;;5032782;28;20041;-74
2023/07/11 03:24:32;;;;;;;1.65;1.25;;;;;;;;;;5038006;28;20495;-74
2023/07/11 03:26:58;;;;;;;1.55;1.10;;;;;;;;;;5054330;28;20029;-74
2023/07/11 03:29:23;;;;;;;1.40;1.20;;;;;;;;;;5036548;28;20082;-74
2023/07/11 03:31:48;;;;;;;2.00;1.27;;;;;;;;;;5054328;28;20073;-75
2023/07/11 03:34:14;;;;;;;2.08;1.40;;;;;;;;;;5054509;28;20039;-74
2023/07/11 03:36:40;;;;;;;2.30;1.23;;;;;;;;;;5053260;28;20033;-74
2023/07/11 03:39:06;;;;;;;1.77;1.20;;;;;;;;;;5054259;28;20086;-74
2023/07/11 03:41:31;;;;;;;1.77;1.20;;;;;;;;;;5054094;28;20025;-74
2023/07/11 03:43:57;;;;;;;1.70;1.25;;;;;;;;;;5053979;28;20033;-74
2023/07/11 03:46:22;;;;;;;2.25;1.40;;;;;;;;;;5036179;28;20025;-75
2023/07/11 03:48:47;;;;;;;1.30;1.17;;;;;;;;;;5055490;28;20025;-74
2023/07/11 03:51:13;;;;;;;1.33;1.23;;;;;;;;;;5037456;28;20463;-74
2023/07/11 03:53:38;;;;;;;2.47;1.30;;;;;;;;;;5053415;28;20028;-74
2023/07/11 03:56:07;;;;;;;1.58;1.27;;;;;;;;;;5054290;28;20032;-75
2023/07/11 03:58:33;;;;;;;2.55;1.10;;;;;;;;;;5053202;28;20471;-74
2023/07/11 04:00:58;;;;;;;1.65;1.27;;;;;;;;;;5052880;28;20032;-74
2023/07/11 04:03:24;;;;;;;1.83;1.25;;;;;;;;;;5053481;28;20372;-74
2023/07/11 04:05:50;;;;;;;1.42;1.13;;;;;;;;;;5035474;28;20032;-75
2023/07/11 04:08:15;;;;;;;1.20;1.10;;;;;;;;;;5053595;28;20142;-75
2023/07/11 04:10:40;;;;;;;1.95;1.33;;;;;;;;;;5055981;28;20041;-74
2023/07/11 04:13:06;;;;;;;1.38;1.20;;;;;;;;;;5057523;28;20082;-75
2023/07/11 04:15:31;;;;;;;1.65;1.20;;;;;;;;;;5036114;28;20535;-74
2023/07/11 04:17:57;;;;;;;3.53;1.33;;;;;;;;;;5035699;28;20078;-74
2023/07/11 04:20:22;;;;;;;2.83;1.55;;;;;;;;;;5035678;28;20116;-73
2023/07/11 04:22:47;;;;;;;4.15;1.50;;;;;;;;;;5054578;28;20033;-74
2023/07/11 04:25:13;;;;;;;1.50;1.40;;;;;;;;;;5035323;28;20136;-74
2023/07/11 04:27:38;;;;;;;2.60;1.77;;;;;;;;;;5053137;28;20097;-74
2023/07/11 04:30:04;;;;;;;2.70;1.80;;;;;;;;;;5053103;28;20036;-74
2023/07/11 04:32:30;;;;;;;3.67;2.08;;;;;;;;;;5051866;28;20036;-74
2023/07/11 04:34:55;;;;;;;2.95;1.83;;;;;;;;;;5035266;28;20033;-75
2023/07/11 04:37:20;;;;;;;1.98;1.35;;;;;;;;;;5035285;28;20083;-75
2023/07/11 04:39:46;;;;;;;2.47;1.63;;;;;;;;;;5035183;28;20032;-75
2023/07/11 04:42:11;;;;;;;2.13;1.42;;;;;;;;;;5035589;28;20056;-75
2023/07/11 04:44:37;;;;;;;2.15;1.30;;;;;;;;;;5036150;28;20458;-75
2023/07/11 04:47:02;;;;;;;2.42;1.42;;;;;;;;;;5054790;28;20514;-74
2023/07/11 04:49:28;;;;;;;1.63;1.20;;;;;;;;;;5058109;28;20116;-75
2023/07/11 04:51:53;;;;;;;3.05;1.50;;;;;;;;;;5038991;28;20033;-76
2023/07/11 04:54:18;;;;;;;2.20;1.45;;;;;;;;;;5056740;28;20057;-74
2023/07/11 04:56:44;;;;;;;3.35;1.58;;;;;;;;;;5057097;28;20511;-73
2023/07/11 04:59:09;;;;;;;3.35;1.35;;;;;;;;;;5038880;28;20037;-73
2023/07/11 05:01:35;;;;;;;5.55;2.00;;;;;;;;;;5056754;28;20020;-75
2023/07/11 05:04:00;;;;;;;11.20;3.83;;;;;;;;;;5038856;28;20037;-75
2023/07/11 05:06:26;;;;;;;19.52;6.90;;;;;;;;;;5038674;28;20029;-75
2023/07/11 05:08:51;;;;;;;35.33;11.20;;;;;;;;;;5038546;28;20503;-74
2023/07/11 05:11:19;;;;;;;32.38;10.80;;;;;;;;;;5022055;28;20384;-75
2023/07/11 05:13:46;;;;;;;33.60;10.35;;;;;;;;;;5038547;28;20052;-75
2023/07/11 05:16:16;;;;;;;31.13;10.38;;;;;;;;;;5022226;28;20090;-75
2023/07/11 05:18:42;;;;;;;29.23;9.07;;;;;;;;;;5039046;28;20467;-75
2023/07/11 05:21:09;;;;;;;27.67;9.30;;;;;;;;;;5055204;28;20028;-75
2023/07/11 05:23:35;;;;;;;21.25;8.18;;;;;;;;;;5038906;28;20112;-76
2023/07/11 05:26:00;;;;;;;19.30;8.77;;;;;;;;;;5055324;28;20076;-75
2023/07/11 05:28:26;;;;;;;23.13;8.73;;;;;;;;;;5054944;28;20033;-75
2023/07/11 05:30:53;;;;;;;18.63;7.55;;;;;;;;;;5054961;28;20510;-74
2023/07/11 05:33:18;;;;;;;17.35;6.85;;;;;;;;;;5055399;28;20035;-74
2023/07/11 05:38:55;;;;;;;18.48;6.53;;;;;;;;;;5041093;28;20397;-75
2023/07/11 05:41:21;;;;;;;19.27;7.35;;;;;;;;;;5038076;28;20021;-74
2023/07/11 05:43:46;;;;;;;22.67;7.15;;;;;;;;;;5038062;28;20040;-75
2023/07/11 05:46:12;;;;;;;20.38;7.28;;;;;;;;;;5038306;28;20029;-75
2023/07/11 05:48:37;;;;;;;18.50;6.70;;;;;;;;;;5037839;28;20029;-74
2023/07/11 05:51:09;;;;;;;16.35;6.35;;;;;;;;;;5055808;28;20476;-72
2023/07/11 05:53:35;;;;;;;16.83;6.03;;;;;;;;;;5054425;28;20029;-73
2023/07/11 05:56:00;;;;;;;19.90;6.18;;;;;;;;;;5037986;28;20040;-74
2023/07/11 05:58:30;;;;;;;18.27;6.15;;;;;;;;;;5037753;28;20029;-75
2023/07/11 06:00:56;;;;;;;17.30;5.93;;;;;;;;;;5054959;28;20029;-75
2023/07/11 06:03:23;;;;;;;17.05;5.75;;;;;;;;;;5037744;28;20114;-74
2023/07/11 06:05:49;;;;;;;16.55;5.60;;;;;;;;;;5054244;28;20021;-75
2023/07/11 06:08:15;;;;;;;15.38;6.28;;;;;;;;;;5037477;28;20033;-73
2023/07/11 06:10:41;;;;;;;17.13;6.03;;;;;;;;;;5054221;28;20025;-75
2023/07/11 06:13:06;;;;;;;13.80;5.78;;;;;;;;;;5054127;28;20453;-74
2023/07/11 06:15:32;;;;;;;18.00;5.47;;;;;;;;;;5021015;28;20110;-74
2023/07/11 06:17:57;;;;;;;12.25;4.82;;;;;;;;;;5055169;28;20025;-75
2023/07/11 06:20:23;;;;;;;10.35;5.20;;;;;;;;;;5020778;28;20021;-74
2023/07/11 06:22:49;;;;;;;12.85;4.40;;;;;;;;;;5054513;28;20057;-74
2023/07/11 06:25:14;;;;;;;10.80;4.65;;;;;;;;;;5037297;28;20095;-74
2023/07/11 06:27:39;;;;;;;15.13;5.68;;;;;;;;;;5037539;28;20454;-75
2023/07/11 06:30:06;;;;;;;12.70;4.90;;;;;;;;;;5037143;28;20043;-76
2023/07/11 06:32:31;;;;;;;12.50;4.32;;;;;;;;;;5053667;28;20102;-75
2023/07/11 06:34:56;;;;;;;10.40;4.82;;;;;;;;;;5037298;28;20467;-75
2023/07/11 06:37:22;;;;;;;11.45;4.18;;;;;;;;;;5036933;28;20140;-75
2023/07/11 06:39:47;;;;;;;10.30;4.13;;;;;;;;;;5020394;28;20025;-75
2023/07/11 06:42:13;;;;;;;11.85;4.68;;;;;;;;;;5054764;28;20025;-74
2023/07/11 06:44:38;;;;;;;12.57;3.97;;;;;;;;;;5036959;28;20029;-76
2023/07/11 06:47:04;;;;;;;7.30;3.35;;;;;;;;;;5020446;28;20032;-75
2023/07/11 06:49:30;;;;;;;10.00;3.42;;;;;;;;;;5054942;28;20033;-75
2023/07/11 06:51:55;;;;;;;8.85;3.47;;;;;;;;;;5037143;28;20025;-74
2023/07/11 06:54:20;;;;;;;8.45;3.30;;;;;;;;;;5037280;28;20036;-74
2023/07/11 06:56:46;;;;;;;9.23;3.75;;;;;;;;;;5036600;28;20113;-74
2023/07/11 06:59:19;;;;;;;9.52;3.90;;;;;;;;;;5036886;28;20037;-74
2023/07/11 07:01:45;;;;;;;6.15;2.80;;;;;;;;;;5037344;28;20442;-73
2023/07/11 07:04:13;;;;;;;10.80;3.22;;;;;;;;;;5039211;28;20054;-74
2023/07/11 07:06:39;;;;;;;6.57;3.13;;;;;;;;;;5041261;28;20431;-75
2023/07/11 07:09:05;;;;;;;8.13;2.92;;;;;;;;;;5037755;28;20086;-74
2023/07/11 07:11:30;;;;;;;6.63;3.25;;;;;;;;;;5036239;28;20029;-75
2023/07/11 07:13:55;;;;;;;6.63;3.03;;;;;;;;;;5036156;28;20032;-74
2023/07/11 07:16:21;;;;;;;7.28;3.00;;;;;;;;;;5054172;28;20041;-75
2023/07/11 07:18:46;;;;;;;4.50;2.80;;;;;;;;;;5036221;28;20040;-75
2023/07/11 07:21:11;;;;;;;7.32;2.72;;;;;;;;;;5019762;28;20499;-74
2023/07/11 07:23:37;;;;;;;5.05;2.42;;;;;;;;;;5054277;28;20124;-74
2023/07/11 07:26:03;;;;;;;5.45;2.63;;;;;;;;;;5035935;28;20049;-75
2023/07/11 07:28:30;;;;;;;4.80;2.70;;;;;;;;;;5035974;28;20072;-74
2023/07/11 07:30:56;;;;;;;4.78;2.25;;;;;;;;;;5036302;28;20056;-75
2023/07/11 07:33:24;;;;;;;3.88;2.35;;;;;;;;;;5052915;28;20114;-75
2023/07/11 07:35:53;;;;;;;6.13;2.50;;;;;;;;;;5053806;28;20104;-75
2023/07/11 07:38:19;;;;;;;4.63;2.40;;;;;;;;;;5052543;28;20037;-75
2023/07/11 07:40:51;;;;;;;4.78;2.38;;;;;;;;;;5035752;28;20094;-74
2023/07/11 07:43:16;;;;;;;6.13;2.40;;;;;;;;;;5052450;28;20025;-75
2023/07/11 07:45:41;;;;;;;5.32;2.40;;;;;;;;;;5036181;28;20132;-75
2023/07/11 07:48:07;;;;;;;3.17;2.08;;;;;;;;;;5035967;28;20087;-75
2023/07/11 07:50:32;;;;;;;3.15;1.90;;;;;;;;;;5036214;28;20029;-75
2023/07/11 07:52:57;;;;;;;3.17;2.00;;;;;;;;;;5035734;28;20460;-74
2023/07/11 07:55:23;;;;;;;5.50;2.08;;;;;;;;;;5053884;28;20032;-74
2023/07/11 07:57:48;;;;;;;3.22;2.13;;;;;;;;;;5035641;28;20063;-74
2023/07/11 08:00:14;;;;;;;3.70;2.10;;;;;;;;;;5052446;28;20357;-74
2023/07/11 08:02:42;;;;;;;2.60;1.80;;;;;;;;;;5035548;28;20024;-75
2023/07/11 08:05:08;;;;;;;3.28;2.00;;;;;;;;;;5053572;28;20444;-75
2023/07/11 08:07:33;;;;;;;3.20;1.80;;;;;;;;;;5053827;28;20033;-75
2023/07/11 08:09:59;;;;;;;3.90;1.90;;;;;;;;;;5035642;28;20033;-75
2023/07/11 08:12:25;;;;;;;4.85;1.98;;;;;;;;;;5054526;28;20053;-74
2023/07/11 08:14:51;;;;;;;2.95;1.83;;;;;;;;;;5035756;28;20033;-74
2023/07/11 08:17:17;;;;;;;5.80;1.88;;;;;;;;;;5035846;28;20053;-75
2023/07/11 08:19:43;;;;;;;6.32;1.90;;;;;;;;;;5053346;28;20024;-74
2023/07/11 08:22:08;;;;;;;4.57;1.60;;;;;;;;;;5035745;28;20391;-74
2023/07/11 08:24:34;;;;;;;3.88;2.00;;;;;;;;;;5056555;28;20049;-75
2023/07/11 08:26:59;;;;;;;4.65;2.08;;;;;;;;;;5039485;28;20064;-75
2023/07/11 08:29:25;;;;;;;2.25;1.77;;;;;;;;;;5039325;28;20033;-75
2023/07/11 08:31:51;;;;;;;2.65;1.98;;;;;;;;;;5057537;28;20133;-74
2023/07/11 08:34:16;;;;;;;4.05;2.08;;;;;;;;;;5039214;28;20365;-75
2023/07/11 08:36:44;;;;;;;2.28;1.60;;;;;;;;;;5057579;28;20055;-75
2023/07/11 08:39:09;;;;;;;4.68;2.22;;;;;;;;;;5055912;28;20020;-73
2023/07/11 08:41:51;;;;;;;4.05;1.75;;;;;;;;;;5055913;28;20166;-74
2023/07/11 08:44:37;;;;;;;4.70;1.60;;;;;;;;;;5056984;28;20033;-74
2023/07/11 08:47:28;;;;;;;6.00;1.67;;;;;;;;;;5039065;28;20025;-74
2023/07/11 08:50:10;;;;;;;2.67;1.70;;;;;;;;;;5039202;28;20025;-75
2023/07/11 08:52:36;;;;;;;3.30;1.95;;;;;;;;;;5056661;28;20108;-75
2023/07/11 08:55:16;;;;;;;3.88;1.60;;;;;;;;;;5057190;28;20144;-75
2023/07/11 08:57:48;;;;;;;3.10;1.92;;;;;;;;;;5038704;28;20498;-74
2023/07/11 09:00:18;;;;;;;3.58;1.88;;;;;;;;;;5055779;28;20029;-75
2023/07/11 09:02:59;;;;;;;8.35;1.83;;;;;;;;;;5022214;28;20059;-75
2023/07/11 09:05:43;;;;;;;3.47;1.95;;;;;;;;;;5038706;28;20025;-75
2023/07/11 09:08:19;;;;;;;3.17;1.70;;;;;;;;;;5036102;28;20032;-75
2023/07/11 09:10:59;;;;;;;3.00;2.00;;;;;;;;;;5055450;28;20029;-75
2023/07/11 09:13:43;;;;;;;3.70;1.75;;;;;;;;;;5012797;28;20044;-75
2023/07/11 09:16:26;;;;;;;2.97;1.75;;;;;;;;;;5058567;28;20028;-75
2023/07/11 09:19:31;;;;;;;3.92;1.90;;;;;;;;;;5076194;28;20028;-75
2023/07/11 09:22:03;;;;;;;5.32;1.42;;;;;;;;;;5057765;28;20154;-76
2023/07/11 09:24:31;;;;;;;2.97;1.60;;;;;;;;;;5075789;28;20059;-75
2023/07/11 09:27:02;;;;;;;3.25;1.70;;;;;;;;;;5075707;28;20028;-75
2023/07/11 09:29:28;;;;;;;2.00;1.58;;;;;;;;;;5074801;28;20028;-75
2023/07/11 09:31:57;;;;;;;5.03;1.50;;;;;;;;;;5076268;28;20028;-75
2023/07/11 09:34:33;;;;;;;3.20;1.33;;;;;;;;;;5074368;28;20024;-75
2023/07/11 09:37:03;;;;;;;2.85;1.52;;;;;;;;;;5042428;28;20029;-75
2023/07/11 09:39:39;;;;;;;2.67;1.60;;;;;;;;;;5037782;28;20090;-75
2023/07/11 09:42:22;;;;;;;4.43;1.80;;;;;;;;;;5067782;28;20536;-75
2023/07/11 09:45:03;;;;;;;2.10;1.43;;;;;;;;;;5054423;28;20025;-74
2023/07/11 09:47:30;;;;;;;1.58;1.30;;;;;;;;;;5054039;28;20039;-74
2023/07/11 09:49:56;;;;;;;3.58;1.45;;;;;;;;;;5074364;28;20483;-74
2023/07/11 09:52:26;;;;;;;4.60;1.65;;;;;;;;;;5057431;28;20043;-74
2023/07/11 09:54:52;;;;;;;1.60;1.30;;;;;;;;;;5057445;28;20039;-74
2023/07/11 09:57:18;;;;;;;4.78;1.42;;;;;;;;;;5057327;28;20063;-74
2023/07/11 09:59:44;;;;;;;2.90;1.48;;;;;;;;;;5074194;28;20029;-75
2023/07/11 10:02:18;;;;;;;3.05;1.40;;;;;;;;;;5074046;28;20085;-74
2023/07/11 10:04:45;;;;;;;2.58;1.40;;;;;;;;;;5074010;28;20040;-74
2023/07/11 10:07:15;;;;;;;1.58;1.40;;;;;;;;;;5061127;28;20037;-75
2023/07/11 10:09:46;;;;;;;2.13;1.60;;;;;;;;;;5053962;28;20052;-74
2023/07/11 10:12:23;;;;;;;2.58;1.58;;;;;;;;;;5054198;28;20036;-74
2023/07/11 10:14:55;;;;;;;1.77;1.40;;;;;;;;;;5020749;28;20078;-75
2023/07/11 10:17:26;;;;;;;2.90;1.60;;;;;;;;;;5037483;28;20475;-75
2023/07/11 10:19:57;;;;;;;1.85;1.25;;;;;;;;;;5053955;28;20028;-75
2023/07/11 10:22:28;;;;;;;2.00;1.40;;;;;;;;;;5053863;28;20032;-75
2023/07/11 10:25:21;;;;;;;2.70;1.55;;;;;;;;;;5053487;28;20048;-75
2023/07/11 10:28:01;;;;;;;2.35;1.50;;;;;;;;;;5037003;28;20155;-75
2023/07/11 10:30:29;;;;;;;2.65;1.70;;;;;;;;;;5020444;28;20391;-76
2023/07/11 10:32:58;;;;;;;2.75;1.40;;;;;;;;;;5053735;28;20369;-76
2023/07/11 10:35:24;;;;;;;3.67;1.60;;;;;;;;;;5053446;28;20550;-75
2023/07/11 10:37:53;;;;;;;1.85;1.50;;;;;;;;;;5020091;28;20040;-76
2023/07/11 10:40:38;;;;;;;2.58;1.77;;;;;;;;;;5020382;28;20028;-76
2023/07/11 10:43:29;;;;;;;1.98;1.48;;;;;;;;;;5036716;28;20037;-75
2023/07/11 10:46:02;;;;;;;3.20;1.40;;;;;;;;;;5036635;28;20029;-75
2023/07/11 10:48:38;;;;;;;2.38;1.67;;;;;;;;;;5053741;28;20383;-74
2023/07/11 10:51:05;;;;;;;2.05;1.60;;;;;;;;;;5053300;28;20477;-75
2023/07/11 10:53:39;;;;;;;3.22;1.70;;;;;;;;;;5037045;28;20164;-74
2023/07/11 10:56:13;;;;;;;2.80;1.63;;;;;;;;;;5036955;28;20040;-74
2023/07/11 10:58:38;;;;;;;2.17;1.60;;;;;;;;;;5053451;28;20033;-73
2023/07/11 11:01:23;;;;;;;3.38;1.52;;;;;;;;;;5020107;28;20021;-74
2023/07/11 11:03:51;;;;;;;4.30;1.52;;;;;;;;;;5037178;28;20499;-74
2023/07/11 11:06:43;;;;;;;2.25;1.50;;;;;;;;;;5053392;28;20056;-74
2023/07/11 11:09:15;;;;;;;2.53;1.65;;;;;;;;;;5036341;28;20075;-74
2023/07/11 11:12:02;;;;;;;2.72;1.50;;;;;;;;;;5053011;28;20025;-74
2023/07/11 11:14:40;;;;;;;2.30;1.65;;;;;;;;;;5052957;28;20100;-74
2023/07/11 11:17:44;;;;;;;3.60;1.77;;;;;;;;;;5036364;28;20033;-73
2023/07/11 11:20:21;;;;;;;3.90;2.10;;;;;;;;;;5053946;28;20024;-74
2023/07/11 11:22:49;;;;;;;3.40;1.70;;;;;;;;;;5052629;28;20036;-76
2023/07/11 11:25:43;;;;;;;3.45;1.52;;;;;;;;;;5053875;28;20056;-74
2023/07/11 11:28:31;;;;;;;2.50;1.60;;;;;;;;;;5036105;28;20048;-74
2023/07/11 11:31:06;;;;;;;3.10;1.67;;;;;;;;;;5036014;28;20025;-74
2023/07/11 11:33:58;;;;;;;2.15;1.40;;;;;;;;;;5036111;28;20024;-74
2023/07/11 11:36:42;;;;;;;2.05;1.23;;;;;;;;;;5035987;28;20044;-75
2023/07/11 11:39:29;;;;;;;4.53;1.83;;;;;;;;;;5035897;28;20048;-75
2023/07/11 11:41:57;;;;;;;3.38;1.73;;;;;;;;;;5035841;28;20031;-75
2023/07/11 11:44:43;;;;;;;1.60;1.50;;;;;;;;;;5052607;28;20040;-75
2023/07/11 11:47:10;;;;;;;4.13;1.65;;;;;;;;;;5035839;28;20036;-75
2023/07/11 11:49:37;;;;;;;3.60;1.50;;;;;;;;;;5052746;28;20024;-75
2023/07/11 11:52:03;;;;;;;2.80;1.73;;;;;;;;;;5035512;28;20025;-76
2023/07/11 11:54:38;;;;;;;2.15;1.40;;;;;;;;;;5035583;28;20044;-75
2023/07/11 11:57:04;;;;;;;2.55;1.60;;;;;;;;;;5051321;28;20021;-75
2023/07/11 11:59:30;;;;;;;3.40;1.60;;;;;;;;;;5053191;28;20036;-76
2023/07/11 12:02:11;;;;;;;4.05;1.75;;;;;;;;;;5036920;28;20376;-75
2023/07/11 12:04:52;;;;;;;4.55;1.75;;;;;;;;;;5052280;28;20068;-75
2023/07/11 12:07:25;;;;;;;5.13;1.60;;;;;;;;;;5035524;28;20029;-76
2023/07/11 12:09:56;;;;;;;2.08;1.50;;;;;;;;;;5052201;28;20024;-76
2023/07/11 12:12:45;;;;;;;1.63;1.50;;;;;;;;;;5053704;28;20040;-76
2023/07/11 12:15:11;;;;;;;4.43;1.70;;;;;;;;;;5053484;28;20036;-75
2023/07/11 12:17:38;;;;;;;3.50;1.55;;;;;;;;;;5035710;28;20025;-75
2023/07/11 12:20:03;;;;;;;2.10;1.40;;;;;;;;;;5054182;28;20080;-76
2023/07/11 12:22:38;;;;;;;3.45;1.60;;;;;;;;;;5053292;28;20387;-76
2023/07/11 12:25:06;;;;;;;2.45;1.50;;;;;;;;;;5053222;28;20083;-75
2023/07/11 12:27:34;;;;;;;4.57;1.92;;;;;;;;;;5053583;28;20036;-75
2023/07/11 12:30:01;;;;;;;2.28;1.50;;;;;;;;;;5053045;28;20493;-75
2023/07/11 12:32:32;;;;;;;4.43;1.45;;;;;;;;;;5053075;28;20029;-75
2023/07/11 12:35:11;;;;;;;2.17;1.70;;;;;;;;;;5053725;28;20025;-75
2023/07/11 12:37:46;;;;;;;1.65;1.50;;;;;;;;;;5052523;28;20033;-76
2023/07/11 12:40:17;;;;;;;2.17;1.45;;;;;;;;;;5053332;28;20460;-76
2023/07/11 12:42:49;;;;;;;3.00;1.52;;;;;;;;;;5053030;28;20112;-76
2023/07/11 12:45:18;;;;;;;1.65;1.30;;;;;;;;;;5053390;28;20031;-76
2023/07/11 12:47:43;;;;;;;3.20;1.70;;;;;;;;;;5035136;28;20025;-76
2023/07/11 12:50:25;;;;;;;2.30;1.50;;;;;;;;;;5051947;28;20112;-76
2023/07/11 12:53:17;;;;;;;2.30;1.55;;;;;;;;;;5035524;28;20033;-75
2023/07/11 12:55:44;;;;;;;2.72;1.65;;;;;;;;;;5031511;28;20068;-76
2023/07/11 12:58:24;;;;;;;7.43;1.58;;;;;;;;;;5051939;28;20021;-75
2023/07/11 13:00:52;;;;;;;1.92;1.42;;;;;;;;;;5035048;28;20503;-76
2023/07/11 13:03:27;;;;;;;2.45;1.85;;;;;;;;;;5051573;28;20031;-75
2023/07/11 13:05:55;;;;;;;2.53;1.52;;;;;;;;;;5035095;28;20073;-75
2023/07/11 13:08:21;;;;;;;4.07;1.95;;;;;;;;;;5052110;28;20021;-75
2023/07/11 13:10:51;;;;;;;2.08;1.50;;;;;;;;;;5021661;28;20025;-76
2023/07/11 13:13:16;;;;;;;3.17;1.65;;;;;;;;;;5056735;28;20025;-75
2023/07/11 13:15:42;;;;;;;3.85;1.63;;;;;;;;;;5038762;28;20095;-76
2023/07/11 13:18:28;;;;;;;1.85;1.60;;;;;;;;;;5038659;28;20082;-76
2023/07/11 13:20:53;;;;;;;1.67;1.35;;;;;;;;;;5055380;28;20025;-75
2023/07/11 13:23:19;;;;;;;2.70;1.70;;;;;;;;;;5038330;28;20443;-75
2023/07/11 13:25:44;;;;;;;2.90;1.50;;;;;;;;;;5056164;28;20049;-74
2023/07/11 13:28:18;;;;;;;2.03;1.42;;;;;;;;;;5038742;28;20040;-75
2023/07/11 13:30:43;;;;;;;3.55;1.60;;;;;;;;;;5038247;28;20029;-74
2023/07/11 13:33:16;;;;;;;1.45;1.30;;;;;;;;;;5056636;28;20025;-75
2023/07/11 13:35:50;;;;;;;3.25;1.50;;;;;;;;;;5054910;28;20036;-75
2023/07/11 13:38:15;;;;;;;;;;;;;;;;;;5038581;28;20044;-74
2023/07/11 13:40:42;;;;;;;1.50;1.37;;;;;;;;;;5038129;28;19913;-74
2023/07/11 13:43:19;;;;;;;1.90;1.48;;;;;;;;;;5038033;28;20095;-75
2023/07/11 13:45:45;;;;;;;4.40;1.70;;;;;;;;;;5054835;28;20036;-74
2023/07/11 13:48:15;;;;;;;1.83;1.52;;;;;;;;;;5038090;28;20025;-75
2023/07/11 13:50:41;;;;;;;2.45;1.75;;;;;;;;;;5054909;28;20466;-74
2023/07/11 13:53:16;;;;;;;2.67;1.48;;;;;;;;;;5054981;28;20103;-75
2023/07/11 13:55:50;;;;;;;2.97;1.75;;;;;;;;;;5038007;28;20116;-74
2023/07/11 13:58:20;;;;;;;3.85;1.88;;;;;;;;;;5037625;28;20091;-74
2023/07/11 14:00:51;;;;;;;3.58;1.70;;;;;;;;;;5055554;28;20029;-74
2023/07/11 14:03:19;;;;;;;2.28;1.55;;;;;;;;;;5054587;28;20057;-74
2023/07/11 14:05:47;;;;;;;1.50;1.40;;;;;;;;;;5055492;28;20483;-74
2023/07/11 14:08:12;;;;;;;1.50;1.40;;;;;;;;;;5053978;28;20021;-75
2023/07/11 14:10:37;;;;;;;4.90;1.85;;;;;;;;;;5055276;28;20087;-75
2023/07/11 14:13:03;;;;;;;1.77;1.50;;;;;;;;;;5055570;28;20025;-74
2023/07/11 14:15:29;;;;;;;3.08;1.70;;;;;;;;;;5054093;28;20028;-76
2023/07/11 14:17:56;;;;;;;2.50;1.60;;;;;;;;;;5054065;28;20028;-75
2023/07/11 14:20:24;;;;;;;1.73;1.58;;;;;;;;;;5037260;28;20072;-76
2023/07/11 14:22:49;;;;;;;2.60;1.52;;;;;;;;;;5053620;28;20052;-74
2023/07/11 14:25:17;;;;;;;3.63;1.90;;;;;;;;;;5033680;28;20077;-75
2023/07/11 14:27:43;;;;;;;3.55;1.70;;;;;;;;;;5050771;28;20460;-75
2023/07/11 14:30:15;;;;;;;2.88;1.58;;;;;;;;;;5034987;28;20040;-75
2023/07/11 14:32:41;;;;;;;2.20;1.80;;;;;;;;;;5050405;28;20067;-75
2023/07/11 14:35:13;;;;;;;3.60;1.75;;;;;;;;;;5035507;28;20033;-75
2023/07/11 14:37:38;;;;;;;3.20;2.08;;;;;;;;;;5033600;28;20472;-76
2023/07/11 14:40:05;;;;;;;1.67;1.40;;;;;;;;;;5034887;28;20034;-75
2023/07/11 14:42:32;;;;;;;2.30;1.80;;;;;;;;;;5050262;28;20033;-76
2023/07/11 14:44:58;;;;;;;3.92;1.60;;;;;;;;;;5050157;28;20025;-75
2023/07/11 14:47:23;;;;;;;2.70;1.58;;;;;;;;;;5033508;28;20021;-75
2023/07/11 14:49:49;;;;;;;1.58;1.40;;;;;;;;;;5033623;28;20463;-76
2023/07/11 14:52:21;;;;;;;3.88;1.95;;;;;;;;;;5016852;28;20025;-76
2023/07/11 14:54:46;;;;;;;2.30;1.50;;;;;;;;;;5050382;28;20112;-76